sensor_id;sensor_type;location;lat;lon;timestamp;P1;durP1;ratioP1;P2;durP2;ratioP2
7080;SDS011;3582;51.506;11.948;2023-08-31T00:01:35;2.30;;;2.10;;
7080;SDS011;3582;51.506;11.948;2023-08-31T00:04:01;3.03;;;1.80;;
7080;SDS011;3582;51.506;11.948;2023-08-31T00:06:29;1.90;;;1.80;;
7080;SDS011;3582;51.506;11.948;2023-08-31T00:08:55;3.00;;;2.20;;
7080;SDS011;3582;51.506;11.948;2023-08-31T00:11:21;2.87;;;1.77;;
7080;SDS011;3582;51.506;11.948;2023-08-31T00:13:46;2.10;;;1.60;;
7080;SDS011;3582;51.506;11.948;2023-08-31T00:16:12;2.40;;;2.20;;
7080;SDS011;3582;51.506;11.948;2023-08-31T00:18:38;5.83;;;2.10;;
7080;SDS011;3582;51.506;11.948;2023-08-31T00:21:04;1.77;;;1.67;;
7080;SDS011;3582;51.506;11.948;2023-08-31T00:23:31;1.83;;;1.70;;
7080;SDS011;3582;51.506;11.948;2023-08-31T00:25:57;1.60;;;1.50;;
7080;SDS011;3582;51.506;11.948;2023-08-31T00:28:23;1.70;;;1.60;;
7080;SDS011;3582;51.506;11.948;2023-08-31T00:30:50;2.40;;;1.70;;
7080;SDS011;3582;51.506;11.948;2023-08-31T00:33:16;2.17;;;1.57;;
7080;SDS011;3582;51.506;11.948;2023-08-31T00:35:42;3.13;;;1.60;;
7080;SDS011;3582;51.506;11.948;2023-08-31T00:38:12;1.40;;;1.30;;
7080;SDS011;3582;51.506;11.948;2023-08-31T00:40:42;2.30;;;2.10;;
7080;SDS011;3582;51.506;11.948;2023-08-31T00:43:10;1.97;;;1.60;;
7080;SDS011;3582;51.506;11.948;2023-08-31T00:45:37;3.27;;;1.77;;
7080;SDS011;3582;51.506;11.948;2023-08-31T00:48:03;1.93;;;1.77;;
7080;SDS011;3582;51.506;11.948;2023-08-31T00:50:30;2.23;;;2.07;;
7080;SDS011;3582;51.506;11.948;2023-08-31T00:52:56;5.30;;;2.10;;
7080;SDS011;3582;51.506;11.948;2023-08-31T00:55:22;1.53;;;1.43;;
7080;SDS011;3582;51.506;11.948;2023-08-31T00:57:48;2.30;;;1.57;;
7080;SDS011;3582;51.506;11.948;2023-08-31T01:00:14;1.87;;;1.70;;
7080;SDS011;3582;51.506;11.948;2023-08-31T01:02:53;1.67;;;1.57;;
7080;SDS011;3582;51.506;11.948;2023-08-31T01:10:32;1.27;;;1.20;;
7080;SDS011;3582;51.506;11.948;2023-08-31T01:15:27;5.13;;;2.40;;
7080;SDS011;3582;51.506;11.948;2023-08-31T01:17:56;1.80;;;1.60;;
7080;SDS011;3582;51.506;11.948;2023-08-31T01:20:28;1.43;;;1.33;;
7080;SDS011;3582;51.506;11.948;2023-08-31T01:23:01;2.17;;;1.97;;
7080;SDS011;3582;51.506;11.948;2023-08-31T01:25:31;2.03;;;1.93;;
7080;SDS011;3582;51.506;11.948;2023-08-31T01:27:58;1.90;;;1.80;;
7080;SDS011;3582;51.506;11.948;2023-08-31T01:30:24;3.30;;;1.87;;
7080;SDS011;3582;51.506;11.948;2023-08-31T01:32:51;1.43;;;1.43;;
7080;SDS011;3582;51.506;11.948;2023-08-31T01:35:17;1.90;;;1.80;;
7080;SDS011;3582;51.506;11.948;2023-08-31T01:37:47;1.93;;;1.70;;
7080;SDS011;3582;51.506;11.948;2023-08-31T01:43:17;4.63;;;1.83;;
7080;SDS011;3582;51.506;11.948;2023-08-31T01:45:44;3.13;;;2.87;;
7080;SDS011;3582;51.506;11.948;2023-08-31T01:48:10;3.30;;;2.77;;
7080;SDS011;3582;51.506;11.948;2023-08-31T01:50:37;2.60;;;2.40;;
7080;SDS011;3582;51.506;11.948;2023-08-31T01:53:02;1.57;;;1.47;;
7080;SDS011;3582;51.506;11.948;2023-08-31T01:55:31;2.10;;;1.97;;
7080;SDS011;3582;51.506;11.948;2023-08-31T01:57:57;3.10;;;1.43;;
7080;SDS011;3582;51.506;11.948;2023-08-31T02:00:24;1.67;;;1.57;;
7080;SDS011;3582;51.506;11.948;2023-08-31T02:02:51;3.07;;;1.93;;
7080;SDS011;3582;51.506;11.948;2023-08-31T02:05:17;4.00;;;2.00;;
7080;SDS011;3582;51.506;11.948;2023-08-31T02:07:43;2.70;;;1.87;;
7080;SDS011;3582;51.506;11.948;2023-08-31T02:10:09;1.80;;;1.57;;
7080;SDS011;3582;51.506;11.948;2023-08-31T02:12:35;2.97;;;2.07;;
7080;SDS011;3582;51.506;11.948;2023-08-31T02:15:03;3.10;;;2.90;;
7080;SDS011;3582;51.506;11.948;2023-08-31T02:17:29;3.33;;;1.90;;
7080;SDS011;3582;51.506;11.948;2023-08-31T02:19:55;2.60;;;2.40;;
7080;SDS011;3582;51.506;11.948;2023-08-31T02:22:22;2.47;;;2.13;;
7080;SDS011;3582;51.506;11.948;2023-08-31T02:24:48;3.30;;;2.30;;
7080;SDS011;3582;51.506;11.948;2023-08-31T02:27:14;5.57;;;2.60;;
7080;SDS011;3582;51.506;11.948;2023-08-31T02:29:40;2.93;;;2.03;;
7080;SDS011;3582;51.506;11.948;2023-08-31T02:32:06;3.27;;;2.33;;
7080;SDS011;3582;51.506;11.948;2023-08-31T02:34:32;1.83;;;1.73;;
7080;SDS011;3582;51.506;11.948;2023-08-31T02:36:58;2.00;;;1.90;;
7080;SDS011;3582;51.506;11.948;2023-08-31T02:39:24;5.83;;;2.60;;
7080;SDS011;3582;51.506;11.948;2023-08-31T02:41:50;3.80;;;3.00;;
7080;SDS011;3582;51.506;11.948;2023-08-31T02:44:17;2.33;;;2.23;;
7080;SDS011;3582;51.506;11.948;2023-08-31T02:46:43;2.20;;;2.10;;
7080;SDS011;3582;51.506;11.948;2023-08-31T02:49:09;4.63;;;2.87;;
7080;SDS011;3582;51.506;11.948;2023-08-31T02:51:35;4.13;;;2.30;;
7080;SDS011;3582;51.506;11.948;2023-08-31T02:54:01;3.00;;;2.63;;
7080;SDS011;3582;51.506;11.948;2023-08-31T02:56:28;7.43;;;2.73;;
7080;SDS011;3582;51.506;11.948;2023-08-31T02:58:54;3.27;;;3.03;;
7080;SDS011;3582;51.506;11.948;2023-08-31T03:01:20;5.60;;;4.63;;
7080;SDS011;3582;51.506;11.948;2023-08-31T03:03:46;3.37;;;3.07;;
7080;SDS011;3582;51.506;11.948;2023-08-31T03:06:12;3.40;;;3.10;;
7080;SDS011;3582;51.506;11.948;2023-08-31T03:08:38;4.27;;;3.87;;
7080;SDS011;3582;51.506;11.948;2023-08-31T03:11:04;4.83;;;4.43;;
7080;SDS011;3582;51.506;11.948;2023-08-31T03:13:31;5.43;;;4.00;;
7080;SDS011;3582;51.506;11.948;2023-08-31T03:15:57;5.33;;;4.83;;
7080;SDS011;3582;51.506;11.948;2023-08-31T03:18:23;5.53;;;5.03;;
7080;SDS011;3582;51.506;11.948;2023-08-31T03:20:50;6.03;;;4.37;;
7080;SDS011;3582;51.506;11.948;2023-08-31T03:23:16;7.43;;;5.27;;
7080;SDS011;3582;51.506;11.948;2023-08-31T03:25:42;8.33;;;6.40;;
7080;SDS011;3582;51.506;11.948;2023-08-31T03:28:08;7.40;;;4.97;;
7080;SDS011;3582;51.506;11.948;2023-08-31T03:30:34;7.20;;;5.07;;
7080;SDS011;3582;51.506;11.948;2023-08-31T03:33:00;5.80;;;5.30;;
7080;SDS011;3582;51.506;11.948;2023-08-31T03:35:27;5.90;;;5.50;;
7080;SDS011;3582;51.506;11.948;2023-08-31T03:37:53;6.70;;;5.13;;
7080;SDS011;3582;51.506;11.948;2023-08-31T03:40:19;5.40;;;4.87;;
7080;SDS011;3582;51.506;11.948;2023-08-31T03:42:46;5.10;;;4.70;;
7080;SDS011;3582;51.506;11.948;2023-08-31T03:45:12;9.40;;;7.00;;
7080;SDS011;3582;51.506;11.948;2023-08-31T03:47:38;9.03;;;5.67;;
7080;SDS011;3582;51.506;11.948;2023-08-31T03:50:04;6.23;;;5.70;;
7080;SDS011;3582;51.506;11.948;2023-08-31T03:52:30;6.63;;;5.33;;
7080;SDS011;3582;51.506;11.948;2023-08-31T03:54:56;11.00;;;5.87;;
7080;SDS011;3582;51.506;11.948;2023-08-31T03:57:22;6.37;;;5.77;;
7080;SDS011;3582;51.506;11.948;2023-08-31T03:59:48;6.80;;;6.20;;
7080;SDS011;3582;51.506;11.948;2023-08-31T04:02:14;7.07;;;6.37;;
7080;SDS011;3582;51.506;11.948;2023-08-31T04:04:40;7.17;;;6.43;;
7080;SDS011;3582;51.506;11.948;2023-08-31T04:07:06;7.57;;;6.43;;
7080;SDS011;3582;51.506;11.948;2023-08-31T04:09:32;8.60;;;6.43;;
7080;SDS011;3582;51.506;11.948;2023-08-31T04:11:58;8.77;;;6.47;;
7080;SDS011;3582;51.506;11.948;2023-08-31T04:14:25;10.57;;;6.10;;
7080;SDS011;3582;51.506;11.948;2023-08-31T04:16:52;8.13;;;6.73;;
7080;SDS011;3582;51.506;11.948;2023-08-31T04:19:18;7.57;;;6.77;;
7080;SDS011;3582;51.506;11.948;2023-08-31T04:21:44;7.87;;;7.07;;
7080;SDS011;3582;51.506;11.948;2023-08-31T04:24:10;7.20;;;6.60;;
7080;SDS011;3582;51.506;11.948;2023-08-31T04:26:36;9.00;;;8.10;;
7080;SDS011;3582;51.506;11.948;2023-08-31T04:29:03;8.73;;;7.93;;
7080;SDS011;3582;51.506;11.948;2023-08-31T04:31:30;8.00;;;7.37;;
7080;SDS011;3582;51.506;11.948;2023-08-31T04:33:56;9.40;;;7.27;;
7080;SDS011;3582;51.506;11.948;2023-08-31T04:36:23;8.40;;;7.60;;
7080;SDS011;3582;51.506;11.948;2023-08-31T04:38:50;13.03;;;9.73;;
7080;SDS011;3582;51.506;11.948;2023-08-31T04:41:16;8.90;;;7.57;;
7080;SDS011;3582;51.506;11.948;2023-08-31T04:43:42;9.70;;;7.10;;
7080;SDS011;3582;51.506;11.948;2023-08-31T04:46:08;8.33;;;7.40;;
7080;SDS011;3582;51.506;11.948;2023-08-31T04:48:35;9.30;;;7.07;;
7080;SDS011;3582;51.506;11.948;2023-08-31T04:51:01;10.10;;;8.13;;
7080;SDS011;3582;51.506;11.948;2023-08-31T04:53:28;13.57;;;9.40;;
7080;SDS011;3582;51.506;11.948;2023-08-31T04:55:55;11.70;;;7.87;;
7080;SDS011;3582;51.506;11.948;2023-08-31T04:58:21;14.50;;;8.10;;
7080;SDS011;3582;51.506;11.948;2023-08-31T05:00:47;8.83;;;7.90;;
7080;SDS011;3582;51.506;11.948;2023-08-31T05:03:13;9.30;;;7.60;;
7080;SDS011;3582;51.506;11.948;2023-08-31T05:05:39;8.67;;;7.77;;
7080;SDS011;3582;51.506;11.948;2023-08-31T05:08:09;9.20;;;8.47;;
7080;SDS011;3582;51.506;11.948;2023-08-31T05:10:34;12.00;;;8.20;;
7080;SDS011;3582;51.506;11.948;2023-08-31T05:13:00;7.83;;;7.13;;
7080;SDS011;3582;51.506;11.948;2023-08-31T05:15:27;8.60;;;7.43;;
7080;SDS011;3582;51.506;11.948;2023-08-31T05:17:53;12.90;;;8.00;;
7080;SDS011;3582;51.506;11.948;2023-08-31T05:20:20;13.07;;;7.90;;
7080;SDS011;3582;51.506;11.948;2023-08-31T05:22:47;13.60;;;7.50;;
7080;SDS011;3582;51.506;11.948;2023-08-31T05:25:13;15.17;;;9.73;;
7080;SDS011;3582;51.506;11.948;2023-08-31T05:27:39;9.20;;;6.97;;
7080;SDS011;3582;51.506;11.948;2023-08-31T05:30:05;11.00;;;7.43;;
7080;SDS011;3582;51.506;11.948;2023-08-31T05:32:32;9.40;;;7.30;;
7080;SDS011;3582;51.506;11.948;2023-08-31T05:34:57;7.33;;;6.73;;
7080;SDS011;3582;51.506;11.948;2023-08-31T05:37:24;8.83;;;7.50;;
7080;SDS011;3582;51.506;11.948;2023-08-31T05:39:50;8.87;;;7.90;;
7080;SDS011;3582;51.506;11.948;2023-08-31T05:42:16;8.93;;;7.17;;
7080;SDS011;3582;51.506;11.948;2023-08-31T05:44:43;9.00;;;6.80;;
7080;SDS011;3582;51.506;11.948;2023-08-31T05:47:08;12.93;;;11.73;;
7080;SDS011;3582;51.506;11.948;2023-08-31T05:49:35;9.40;;;7.43;;
7080;SDS011;3582;51.506;11.948;2023-08-31T05:52:01;11.50;;;7.53;;
7080;SDS011;3582;51.506;11.948;2023-08-31T05:54:27;12.13;;;7.63;;
7080;SDS011;3582;51.506;11.948;2023-08-31T05:56:53;12.73;;;7.43;;
7080;SDS011;3582;51.506;11.948;2023-08-31T05:59:19;9.63;;;8.63;;
7080;SDS011;3582;51.506;11.948;2023-08-31T06:01:46;11.50;;;8.77;;
7080;SDS011;3582;51.506;11.948;2023-08-31T06:04:12;11.10;;;8.07;;
7080;SDS011;3582;51.506;11.948;2023-08-31T06:06:38;8.77;;;8.03;;
7080;SDS011;3582;51.506;11.948;2023-08-31T06:09:04;11.90;;;7.30;;
7080;SDS011;3582;51.506;11.948;2023-08-31T06:11:31;10.60;;;9.33;;
7080;SDS011;3582;51.506;11.948;2023-08-31T06:13:57;12.77;;;9.40;;
7080;SDS011;3582;51.506;11.948;2023-08-31T06:16:23;8.23;;;7.53;;
7080;SDS011;3582;51.506;11.948;2023-08-31T06:18:49;11.07;;;8.27;;
7080;SDS011;3582;51.506;11.948;2023-08-31T06:21:16;9.83;;;8.00;;
7080;SDS011;3582;51.506;11.948;2023-08-31T06:23:42;8.80;;;7.53;;
7080;SDS011;3582;51.506;11.948;2023-08-31T06:26:08;10.00;;;8.07;;
7080;SDS011;3582;51.506;11.948;2023-08-31T06:28:34;9.17;;;7.83;;
7080;SDS011;3582;51.506;11.948;2023-08-31T06:31:00;8.30;;;7.47;;
7080;SDS011;3582;51.506;11.948;2023-08-31T06:33:26;9.03;;;7.47;;
7080;SDS011;3582;51.506;11.948;2023-08-31T06:35:52;9.67;;;6.73;;
7080;SDS011;3582;51.506;11.948;2023-08-31T06:38:18;7.03;;;6.43;;
7080;SDS011;3582;51.506;11.948;2023-08-31T06:40:46;12.07;;;9.27;;
7080;SDS011;3582;51.506;11.948;2023-08-31T06:43:12;10.80;;;8.03;;
7080;SDS011;3582;51.506;11.948;2023-08-31T06:45:38;11.30;;;8.10;;
7080;SDS011;3582;51.506;11.948;2023-08-31T06:48:05;11.40;;;8.40;;
7080;SDS011;3582;51.506;11.948;2023-08-31T06:50:32;7.67;;;6.97;;
7080;SDS011;3582;51.506;11.948;2023-08-31T06:53:00;7.40;;;6.70;;
7080;SDS011;3582;51.506;11.948;2023-08-31T06:55:26;8.93;;;7.43;;
7080;SDS011;3582;51.506;11.948;2023-08-31T06:57:52;7.17;;;6.47;;
7080;SDS011;3582;51.506;11.948;2023-08-31T07:00:18;7.57;;;6.87;;
7080;SDS011;3582;51.506;11.948;2023-08-31T07:02:44;8.57;;;7.73;;
7080;SDS011;3582;51.506;11.948;2023-08-31T07:05:10;9.83;;;7.70;;
7080;SDS011;3582;51.506;11.948;2023-08-31T07:07:36;11.60;;;7.90;;
7080;SDS011;3582;51.506;11.948;2023-08-31T07:10:02;8.60;;;7.77;;
7080;SDS011;3582;51.506;11.948;2023-08-31T07:12:30;8.70;;;8.00;;
7080;SDS011;3582;51.506;11.948;2023-08-31T07:14:56;8.53;;;7.73;;
7080;SDS011;3582;51.506;11.948;2023-08-31T07:17:22;8.40;;;7.60;;
7080;SDS011;3582;51.506;11.948;2023-08-31T07:19:48;10.40;;;7.37;;
7080;SDS011;3582;51.506;11.948;2023-08-31T07:22:14;10.07;;;8.53;;
7080;SDS011;3582;51.506;11.948;2023-08-31T07:24:40;11.60;;;10.07;;
7080;SDS011;3582;51.506;11.948;2023-08-31T07:27:06;9.83;;;8.93;;
7080;SDS011;3582;51.506;11.948;2023-08-31T07:29:32;13.63;;;12.20;;
7080;SDS011;3582;51.506;11.948;2023-08-31T07:31:58;10.13;;;8.70;;
7080;SDS011;3582;51.506;11.948;2023-08-31T07:34:24;12.37;;;9.60;;
7080;SDS011;3582;51.506;11.948;2023-08-31T07:36:52;11.07;;;8.57;;
7080;SDS011;3582;51.506;11.948;2023-08-31T07:39:19;9.27;;;8.37;;
7080;SDS011;3582;51.506;11.948;2023-08-31T07:41:45;8.57;;;7.93;;
7080;SDS011;3582;51.506;11.948;2023-08-31T07:44:11;13.70;;;9.47;;
7080;SDS011;3582;51.506;11.948;2023-08-31T07:46:37;9.00;;;7.63;;
7080;SDS011;3582;51.506;11.948;2023-08-31T07:49:03;10.50;;;7.53;;
7080;SDS011;3582;51.506;11.948;2023-08-31T07:51:29;9.17;;;8.37;;
7080;SDS011;3582;51.506;11.948;2023-08-31T07:53:55;10.17;;;7.63;;
7080;SDS011;3582;51.506;11.948;2023-08-31T07:56:21;8.20;;;7.37;;
7080;SDS011;3582;51.506;11.948;2023-08-31T07:58:49;9.30;;;7.80;;
7080;SDS011;3582;51.506;11.948;2023-08-31T08:01:15;9.60;;;7.97;;
7080;SDS011;3582;51.506;11.948;2023-08-31T08:03:42;8.73;;;7.60;;
7080;SDS011;3582;51.506;11.948;2023-08-31T08:06:08;9.97;;;8.93;;
7080;SDS011;3582;51.506;11.948;2023-08-31T08:08:34;10.07;;;9.07;;
7080;SDS011;3582;51.506;11.948;2023-08-31T08:11:00;12.53;;;8.80;;
7080;SDS011;3582;51.506;11.948;2023-08-31T08:13:27;8.80;;;7.93;;
7080;SDS011;3582;51.506;11.948;2023-08-31T08:15:53;9.20;;;8.20;;
7080;SDS011;3582;51.506;11.948;2023-08-31T08:18:19;9.10;;;8.20;;
7080;SDS011;3582;51.506;11.948;2023-08-31T08:20:50;8.47;;;7.77;;
7080;SDS011;3582;51.506;11.948;2023-08-31T08:23:16;9.47;;;8.70;;
7080;SDS011;3582;51.506;11.948;2023-08-31T08:25:42;11.77;;;8.53;;
7080;SDS011;3582;51.506;11.948;2023-08-31T08:28:08;8.13;;;7.40;;
7080;SDS011;3582;51.506;11.948;2023-08-31T08:30:34;8.77;;;8.07;;
7080;SDS011;3582;51.506;11.948;2023-08-31T08:33:00;11.33;;;10.23;;
7080;SDS011;3582;51.506;11.948;2023-08-31T08:35:26;9.60;;;8.70;;
7080;SDS011;3582;51.506;11.948;2023-08-31T08:37:52;9.67;;;8.60;;
7080;SDS011;3582;51.506;11.948;2023-08-31T08:40:18;9.67;;;7.67;;
7080;SDS011;3582;51.506;11.948;2023-08-31T08:42:45;7.93;;;7.37;;
7080;SDS011;3582;51.506;11.948;2023-08-31T08:45:12;6.70;;;6.10;;
7080;SDS011;3582;51.506;11.948;2023-08-31T08:47:40;22.10;;;13.83;;
7080;SDS011;3582;51.506;11.948;2023-08-31T08:50:07;6.13;;;5.50;;
7080;SDS011;3582;51.506;11.948;2023-08-31T08:52:33;7.40;;;5.60;;
7080;SDS011;3582;51.506;11.948;2023-08-31T08:55:00;5.47;;;4.07;;
7080;SDS011;3582;51.506;11.948;2023-08-31T08:57:27;10.83;;;6.57;;
7080;SDS011;3582;51.506;11.948;2023-08-31T08:59:53;5.43;;;4.50;;
7080;SDS011;3582;51.506;11.948;2023-08-31T09:02:19;17.53;;;5.23;;
7080;SDS011;3582;51.506;11.948;2023-08-31T09:04:45;4.63;;;4.30;;
7080;SDS011;3582;51.506;11.948;2023-08-31T09:07:11;3.67;;;3.47;;
7080;SDS011;3582;51.506;11.948;2023-08-31T09:09:50;5.40;;;3.80;;
7080;SDS011;3582;51.506;11.948;2023-08-31T09:12:16;5.83;;;3.90;;
7080;SDS011;3582;51.506;11.948;2023-08-31T09:14:42;6.07;;;4.80;;
7080;SDS011;3582;51.506;11.948;2023-08-31T09:17:08;5.93;;;5.23;;
7080;SDS011;3582;51.506;11.948;2023-08-31T09:19:34;6.50;;;5.87;;
7080;SDS011;3582;51.506;11.948;2023-08-31T09:22:00;7.60;;;6.90;;
7080;SDS011;3582;51.506;11.948;2023-08-31T09:24:27;7.47;;;6.77;;
7080;SDS011;3582;51.506;11.948;2023-08-31T09:26:53;6.87;;;6.37;;
7080;SDS011;3582;51.506;11.948;2023-08-31T09:29:19;9.00;;;8.10;;
7080;SDS011;3582;51.506;11.948;2023-08-31T09:31:45;9.70;;;8.90;;
7080;SDS011;3582;51.506;11.948;2023-08-31T09:34:12;9.83;;;8.57;;
7080;SDS011;3582;51.506;11.948;2023-08-31T09:36:38;8.37;;;7.60;;
7080;SDS011;3582;51.506;11.948;2023-08-31T09:39:08;10.70;;;7.80;;
7080;SDS011;3582;51.506;11.948;2023-08-31T09:41:34;7.00;;;6.50;;
7080;SDS011;3582;51.506;11.948;2023-08-31T09:44:16;8.57;;;7.57;;
7080;SDS011;3582;51.506;11.948;2023-08-31T09:46:43;7.33;;;6.77;;
7080;SDS011;3582;51.506;11.948;2023-08-31T09:49:10;5.80;;;5.30;;
7080;SDS011;3582;51.506;11.948;2023-08-31T09:51:36;6.87;;;5.57;;
7080;SDS011;3582;51.506;11.948;2023-08-31T09:54:05;6.13;;;5.63;;
7080;SDS011;3582;51.506;11.948;2023-08-31T09:56:31;7.50;;;6.33;;
7080;SDS011;3582;51.506;11.948;2023-08-31T09:58:59;8.00;;;5.10;;
7080;SDS011;3582;51.506;11.948;2023-08-31T10:01:25;5.10;;;4.63;;
7080;SDS011;3582;51.506;11.948;2023-08-31T10:03:51;5.43;;;5.03;;
7080;SDS011;3582;51.506;11.948;2023-08-31T10:06:18;5.50;;;4.63;;
7080;SDS011;3582;51.506;11.948;2023-08-31T10:08:44;6.50;;;4.37;;
7080;SDS011;3582;51.506;11.948;2023-08-31T10:11:10;6.00;;;5.30;;
7080;SDS011;3582;51.506;11.948;2023-08-31T10:13:38;4.77;;;4.23;;
7080;SDS011;3582;51.506;11.948;2023-08-31T10:16:05;6.00;;;5.57;;
7080;SDS011;3582;51.506;11.948;2023-08-31T10:18:32;4.63;;;4.33;;
7080;SDS011;3582;51.506;11.948;2023-08-31T10:21:01;5.00;;;4.70;;
7080;SDS011;3582;51.506;11.948;2023-08-31T10:23:28;5.43;;;4.60;;
7080;SDS011;3582;51.506;11.948;2023-08-31T10:28:20;4.80;;;4.30;;
7080;SDS011;3582;51.506;11.948;2023-08-31T10:33:33;5.33;;;4.17;;
7080;SDS011;3582;51.506;11.948;2023-08-31T10:35:59;5.40;;;4.93;;
7080;SDS011;3582;51.506;11.948;2023-08-31T10:38:26;4.10;;;3.73;;
7080;SDS011;3582;51.506;11.948;2023-08-31T10:43:49;5.10;;;3.47;;
7080;SDS011;3582;51.506;11.948;2023-08-31T10:46:24;3.67;;;3.40;;
7080;SDS011;3582;51.506;11.948;2023-08-31T10:48:52;5.23;;;3.93;;
7080;SDS011;3582;51.506;11.948;2023-08-31T10:51:18;4.10;;;3.90;;
7080;SDS011;3582;51.506;11.948;2023-08-31T10:53:46;4.10;;;3.70;;
7080;SDS011;3582;51.506;11.948;2023-08-31T10:56:15;4.43;;;3.97;;
7080;SDS011;3582;51.506;11.948;2023-08-31T10:58:41;4.37;;;3.77;;
7080;SDS011;3582;51.506;11.948;2023-08-31T11:01:06;4.13;;;3.70;;
7080;SDS011;3582;51.506;11.948;2023-08-31T11:03:32;3.67;;;3.27;;
7080;SDS011;3582;51.506;11.948;2023-08-31T11:06:18;5.07;;;3.90;;
7080;SDS011;3582;51.506;11.948;2023-08-31T11:08:44;3.47;;;3.17;;
7080;SDS011;3582;51.506;11.948;2023-08-31T11:11:10;4.50;;;4.10;;
7080;SDS011;3582;51.506;11.948;2023-08-31T11:13:36;4.93;;;3.30;;
7080;SDS011;3582;51.506;11.948;2023-08-31T11:16:03;4.90;;;3.90;;
7080;SDS011;3582;51.506;11.948;2023-08-31T11:18:29;3.10;;;2.90;;
7080;SDS011;3582;51.506;11.948;2023-08-31T11:20:55;12.07;;;2.93;;
7080;SDS011;3582;51.506;11.948;2023-08-31T11:23:22;5.33;;;3.20;;
7080;SDS011;3582;51.506;11.948;2023-08-31T11:25:49;3.23;;;2.93;;
7080;SDS011;3582;51.506;11.948;2023-08-31T11:28:15;2.90;;;2.50;;
7080;SDS011;3582;51.506;11.948;2023-08-31T11:30:41;2.63;;;2.40;;
7080;SDS011;3582;51.506;11.948;2023-08-31T11:33:09;7.60;;;2.90;;
7080;SDS011;3582;51.506;11.948;2023-08-31T11:35:37;3.10;;;2.80;;
7080;SDS011;3582;51.506;11.948;2023-08-31T11:38:03;3.87;;;2.57;;
7080;SDS011;3582;51.506;11.948;2023-08-31T11:40:29;2.90;;;2.70;;
7080;SDS011;3582;51.506;11.948;2023-08-31T11:42:56;3.40;;;2.77;;
7080;SDS011;3582;51.506;11.948;2023-08-31T11:45:25;2.40;;;1.93;;
7080;SDS011;3582;51.506;11.948;2023-08-31T11:47:51;5.50;;;2.87;;
7080;SDS011;3582;51.506;11.948;2023-08-31T11:50:17;2.57;;;2.17;;
7080;SDS011;3582;51.506;11.948;2023-08-31T11:52:44;4.57;;;3.27;;
7080;SDS011;3582;51.506;11.948;2023-08-31T11:55:11;2.27;;;2.10;;
7080;SDS011;3582;51.506;11.948;2023-08-31T11:57:37;3.93;;;2.43;;
7080;SDS011;3582;51.506;11.948;2023-08-31T12:00:03;2.33;;;2.23;;
7080;SDS011;3582;51.506;11.948;2023-08-31T12:02:34;2.10;;;1.83;;
7080;SDS011;3582;51.506;11.948;2023-08-31T12:05:01;5.40;;;3.10;;
7080;SDS011;3582;51.506;11.948;2023-08-31T12:07:26;8.10;;;2.07;;
7080;SDS011;3582;51.506;11.948;2023-08-31T12:09:52;3.27;;;2.37;;
7080;SDS011;3582;51.506;11.948;2023-08-31T12:12:22;2.63;;;2.47;;
7080;SDS011;3582;51.506;11.948;2023-08-31T12:14:52;2.80;;;2.33;;
7080;SDS011;3582;51.506;11.948;2023-08-31T12:17:19;3.40;;;3.10;;
7080;SDS011;3582;51.506;11.948;2023-08-31T12:19:45;2.47;;;2.27;;
7080;SDS011;3582;51.506;11.948;2023-08-31T12:22:11;3.53;;;2.37;;
7080;SDS011;3582;51.506;11.948;2023-08-31T12:24:40;5.60;;;2.77;;
7080;SDS011;3582;51.506;11.948;2023-08-31T12:27:07;4.40;;;2.50;;
7080;SDS011;3582;51.506;11.948;2023-08-31T12:29:33;1.90;;;1.80;;
7080;SDS011;3582;51.506;11.948;2023-08-31T12:31:59;7.03;;;6.30;;
7080;SDS011;3582;51.506;11.948;2023-08-31T12:34:25;2.03;;;1.77;;
7080;SDS011;3582;51.506;11.948;2023-08-31T12:36:51;3.87;;;2.93;;
7080;SDS011;3582;51.506;11.948;2023-08-31T12:39:17;2.83;;;2.63;;
7080;SDS011;3582;51.506;11.948;2023-08-31T12:41:43;3.63;;;3.30;;
7080;SDS011;3582;51.506;11.948;2023-08-31T12:44:09;3.00;;;2.10;;
7080;SDS011;3582;51.506;11.948;2023-08-31T12:46:35;2.33;;;2.23;;
7080;SDS011;3582;51.506;11.948;2023-08-31T12:49:02;2.57;;;2.37;;
7080;SDS011;3582;51.506;11.948;2023-08-31T12:51:29;7.00;;;2.60;;
7080;SDS011;3582;51.506;11.948;2023-08-31T12:53:55;4.70;;;2.93;;
7080;SDS011;3582;51.506;11.948;2023-08-31T12:56:21;4.40;;;3.37;;
7080;SDS011;3582;51.506;11.948;2023-08-31T12:58:50;2.30;;;2.03;;
7080;SDS011;3582;51.506;11.948;2023-08-31T13:01:17;2.77;;;2.57;;
7080;SDS011;3582;51.506;11.948;2023-08-31T13:03:43;2.10;;;1.77;;
7080;SDS011;3582;51.506;11.948;2023-08-31T13:06:09;5.03;;;2.90;;
7080;SDS011;3582;51.506;11.948;2023-08-31T13:08:36;6.80;;;2.43;;
7080;SDS011;3582;51.506;11.948;2023-08-31T13:11:02;1.90;;;1.80;;
7080;SDS011;3582;51.506;11.948;2023-08-31T13:13:30;3.47;;;2.33;;
7080;SDS011;3582;51.506;11.948;2023-08-31T13:15:56;1.77;;;1.67;;
7080;SDS011;3582;51.506;11.948;2023-08-31T13:18:22;2.90;;;2.33;;
7080;SDS011;3582;51.506;11.948;2023-08-31T13:20:49;2.93;;;2.37;;
7080;SDS011;3582;51.506;11.948;2023-08-31T13:23:15;2.80;;;2.20;;
7080;SDS011;3582;51.506;11.948;2023-08-31T13:25:41;3.23;;;2.43;;
7080;SDS011;3582;51.506;11.948;2023-08-31T13:28:07;4.53;;;3.13;;
7080;SDS011;3582;51.506;11.948;2023-08-31T13:30:33;2.13;;;1.93;;
7080;SDS011;3582;51.506;11.948;2023-08-31T13:32:59;2.40;;;2.30;;
7080;SDS011;3582;51.506;11.948;2023-08-31T13:35:25;2.70;;;2.50;;
7080;SDS011;3582;51.506;11.948;2023-08-31T13:37:51;3.53;;;2.33;;
7080;SDS011;3582;51.506;11.948;2023-08-31T13:40:17;2.53;;;2.10;;
7080;SDS011;3582;51.506;11.948;2023-08-31T13:42:48;2.30;;;2.20;;
7080;SDS011;3582;51.506;11.948;2023-08-31T13:45:18;2.87;;;2.30;;
7080;SDS011;3582;51.506;11.948;2023-08-31T13:47:44;2.07;;;1.97;;
7080;SDS011;3582;51.506;11.948;2023-08-31T13:50:14;2.00;;;1.90;;
7080;SDS011;3582;51.506;11.948;2023-08-31T13:52:40;2.27;;;2.10;;
7080;SDS011;3582;51.506;11.948;2023-08-31T13:55:06;2.73;;;2.53;;
7080;SDS011;3582;51.506;11.948;2023-08-31T13:57:32;2.00;;;1.80;;
7080;SDS011;3582;51.506;11.948;2023-08-31T13:59:58;4.20;;;2.93;;
7080;SDS011;3582;51.506;11.948;2023-08-31T14:02:25;2.07;;;1.67;;
7080;SDS011;3582;51.506;11.948;2023-08-31T14:04:51;12.30;;;2.27;;
7080;SDS011;3582;51.506;11.948;2023-08-31T14:07:17;3.53;;;3.07;;
7080;SDS011;3582;51.506;11.948;2023-08-31T14:09:43;2.47;;;2.17;;
7080;SDS011;3582;51.506;11.948;2023-08-31T14:12:09;3.17;;;1.90;;
7080;SDS011;3582;51.506;11.948;2023-08-31T14:14:35;2.10;;;1.90;;
7080;SDS011;3582;51.506;11.948;2023-08-31T14:17:01;1.30;;;1.30;;
7080;SDS011;3582;51.506;11.948;2023-08-31T14:19:28;2.60;;;2.40;;
7080;SDS011;3582;51.506;11.948;2023-08-31T14:21:54;2.37;;;2.17;;
7080;SDS011;3582;51.506;11.948;2023-08-31T14:24:20;3.40;;;2.40;;
7080;SDS011;3582;51.506;11.948;2023-08-31T14:26:46;7.53;;;2.20;;
7080;SDS011;3582;51.506;11.948;2023-08-31T14:29:12;7.80;;;3.10;;
7080;SDS011;3582;51.506;11.948;2023-08-31T14:31:38;1.60;;;1.50;;
7080;SDS011;3582;51.506;11.948;2023-08-31T14:34:04;4.83;;;1.70;;
7080;SDS011;3582;51.506;11.948;2023-08-31T14:36:30;2.67;;;2.00;;
7080;SDS011;3582;51.506;11.948;2023-08-31T14:38:56;2.93;;;2.73;;
7080;SDS011;3582;51.506;11.948;2023-08-31T14:41:22;1.73;;;1.60;;
7080;SDS011;3582;51.506;11.948;2023-08-31T14:43:48;2.73;;;1.70;;
7080;SDS011;3582;51.506;11.948;2023-08-31T14:46:14;2.40;;;2.20;;
7080;SDS011;3582;51.506;11.948;2023-08-31T14:48:40;3.53;;;1.97;;
7080;SDS011;3582;51.506;11.948;2023-08-31T14:51:06;3.20;;;2.47;;
7080;SDS011;3582;51.506;11.948;2023-08-31T14:53:34;2.93;;;2.00;;
7080;SDS011;3582;51.506;11.948;2023-08-31T14:55:59;6.60;;;3.07;;
7080;SDS011;3582;51.506;11.948;2023-08-31T14:58:25;4.43;;;2.43;;
7080;SDS011;3582;51.506;11.948;2023-08-31T15:00:55;2.03;;;1.80;;
7080;SDS011;3582;51.506;11.948;2023-08-31T15:03:21;2.33;;;2.10;;
7080;SDS011;3582;51.506;11.948;2023-08-31T15:05:48;3.00;;;1.90;;
7080;SDS011;3582;51.506;11.948;2023-08-31T15:08:15;2.10;;;1.90;;
7080;SDS011;3582;51.506;11.948;2023-08-31T15:10:41;4.37;;;2.00;;
7080;SDS011;3582;51.506;11.948;2023-08-31T15:13:07;2.33;;;2.13;;
7080;SDS011;3582;51.506;11.948;2023-08-31T15:15:33;3.37;;;2.47;;